createdAt,value
2023-03-27T00:01:39.073Z,4.59
2023-03-27T00:04:11.467Z,4.57
2023-03-27T00:06:49.256Z,4.55
2023-03-27T00:09:20.351Z,4.53
2023-03-27T00:11:49.697Z,4.51
2023-03-27T00:14:20.612Z,4.50
2023-03-27T00:16:50.016Z,4.49
2023-03-27T00:19:22.943Z,4.48
2023-03-27T00:21:52.569Z,4.47
2023-03-27T00:24:22.558Z,4.44
2023-03-27T00:26:51.463Z,4.41
2023-03-27T00:29:22.409Z,4.40
2023-03-27T00:31:53.656Z,4.37
2023-03-27T00:34:22.488Z,4.35
2023-03-27T00:36:52.408Z,4.33
2023-03-27T00:39:21.544Z,4.31
2023-03-27T00:41:50.647Z,4.30
2023-03-27T00:44:34.641Z,4.28
2023-03-27T00:47:05.167Z,4.27
2023-03-27T00:49:35.714Z,4.25
2023-03-27T00:52:05.079Z,4.25
2023-03-27T00:54:39.140Z,4.25
2023-03-27T00:57:10.122Z,4.23
2023-03-27T00:59:40.436Z,4.22
2023-03-27T01:02:09.515Z,4.21
2023-03-27T01:04:39.357Z,4.19
2023-03-27T01:07:09.075Z,4.18
2023-03-27T01:09:39.120Z,4.17
2023-03-27T01:12:14.957Z,4.18
2023-03-27T01:15:02.853Z,4.16
2023-03-27T01:17:38.315Z,4.14
2023-03-27T01:20:32.908Z,4.13
2023-03-27T01:23:36.201Z,4.12
2023-03-27T01:26:59.813Z,4.10
2023-03-27T01:29:41.567Z,4.06
2023-03-27T01:32:19.690Z,4.03
2023-03-27T01:35:01.130Z,4.00
2023-03-27T01:37:41.657Z,3.96
2023-03-27T01:40:26.126Z,3.94
2023-03-27T01:43:04.637Z,3.92
2023-03-27T01:45:53.765Z,3.91
2023-03-27T01:48:33.633Z,3.89
2023-03-27T01:51:06.975Z,3.87
2023-03-27T01:53:42.645Z,3.85
2023-03-27T01:56:18.696Z,3.82
2023-03-27T01:58:48.371Z,3.80
2023-03-27T02:01:23.582Z,3.77
2023-03-27T02:03:54.944Z,3.73
2023-03-27T02:06:33.759Z,3.68
2023-03-27T02:09:16.698Z,3.64
2023-03-27T02:11:48.403Z,3.59
2023-03-27T02:14:23.137Z,3.56
2023-03-27T02:16:54.605Z,3.52
2023-03-27T02:19:30.424Z,3.48
2023-03-27T02:21:59.746Z,3.43
2023-03-27T02:24:29.186Z,3.36
2023-03-27T02:27:13.475Z,3.31
2023-03-27T02:29:55.136Z,3.25
2023-03-27T02:32:43.033Z,3.19
2023-03-27T02:35:30.212Z,3.15
2023-03-27T02:37:59.423Z,3.11
2023-03-27T02:40:46.616Z,3.07
2023-03-27T02:43:43.517Z,3.06
2023-03-27T02:46:22.036Z,3.04
2023-03-27T02:48:57.454Z,3.04
2023-03-27T02:51:29.136Z,3.03
2023-03-27T02:54:06.939Z,3.03
2023-03-27T02:56:40.932Z,3.03
2023-03-27T02:59:22.668Z,3.02
2023-03-27T03:01:52.726Z,2.99
2023-03-27T03:04:29.099Z,2.96
2023-03-27T03:07:21.232Z,2.92
2023-03-27T03:09:50.237Z,2.89
2023-03-27T03:12:18.943Z,2.84
2023-03-27T03:14:48.838Z,2.81
2023-03-27T03:17:17.920Z,2.77
2023-03-27T03:19:50.933Z,2.72
2023-03-27T03:22:19.804Z,2.69
2023-03-27T03:24:48.627Z,2.66
2023-03-27T03:27:21.324Z,2.63
2023-03-27T03:29:59.213Z,2.61
2023-03-27T03:32:38.329Z,2.58
2023-03-27T03:35:10.228Z,2.56
2023-03-27T03:37:39.466Z,2.54
2023-03-27T03:40:12.295Z,2.52
2023-03-27T03:42:45.745Z,2.50
2023-03-27T03:45:21.218Z,2.49
2023-03-27T03:47:50.827Z,2.49
2023-03-27T03:50:19.673Z,2.50
2023-03-27T03:52:49.058Z,2.51
2023-03-27T03:55:17.875Z,2.52
2023-03-27T03:57:50.480Z,2.54
2023-03-27T04:00:27.162Z,2.55
2023-03-27T04:02:58.389Z,2.59
2023-03-27T04:05:27.416Z,2.62
2023-03-27T04:07:59.732Z,2.66
2023-03-27T04:10:41.929Z,2.72
2023-03-27T04:13:26.321Z,2.78
2023-03-27T04:16:02.103Z,2.82
2023-03-27T04:18:41.810Z,2.88
2023-03-27T04:21:18.232Z,2.93
2023-03-27T04:23:48.608Z,2.97
2023-03-27T04:26:26.743Z,3.01
2023-03-27T04:29:14.108Z,3.07
2023-03-27T04:32:20.866Z,3.13
2023-03-27T04:35:11.213Z,3.20
2023-03-27T04:37:49.367Z,3.28
2023-03-27T04:40:46.363Z,3.37
2023-03-27T04:43:17.645Z,3.46
2023-03-27T04:45:49.297Z,3.60
2023-03-27T04:48:18.665Z,3.84
2023-03-27T04:50:50.729Z,4.13
2023-03-27T04:53:38.193Z,4.41
2023-03-27T04:56:08.591Z,4.65
2023-03-27T04:58:41.834Z,4.90
2023-03-27T05:01:13.987Z,5.16
2023-03-27T05:04:04.700Z,5.39
2023-03-27T05:06:44.553Z,5.61
2023-03-27T05:09:16.165Z,5.80
2023-03-27T05:11:49.931Z,6.01
2023-03-27T05:14:23.779Z,6.22
2023-03-27T05:16:58.755Z,6.38
2023-03-27T05:19:27.725Z,6.52
2023-03-27T05:22:01.716Z,6.64
2023-03-27T05:24:31.926Z,6.74
2023-03-27T05:27:01.788Z,6.82
2023-03-27T05:29:30.883Z,6.92
2023-03-27T05:32:16.370Z,7.05
2023-03-27T05:34:51.144Z,7.19
2023-03-27T05:37:21.675Z,7.32
2023-03-27T05:40:09.541Z,7.49
2023-03-27T05:42:43.389Z,7.64
2023-03-27T05:45:12.528Z,7.81
2023-03-27T05:48:02.038Z,7.94
2023-03-27T05:50:35.000Z,8.12
2023-03-27T05:53:11.434Z,8.26
2023-03-27T05:55:46.650Z,8.39
2023-03-27T05:58:20.337Z,8.49
2023-03-27T06:00:50.889Z,8.55
2023-03-27T06:03:24.616Z,8.63
2023-03-27T06:06:12.580Z,8.72
2023-03-27T06:08:44.893Z,8.81
2023-03-27T06:11:15.360Z,8.93
2023-03-27T06:13:51.860Z,9.07
2023-03-27T06:16:26.797Z,9.23
2023-03-27T06:19:01.651Z,9.42
2023-03-27T06:21:32.496Z,9.59
2023-03-27T06:24:03.460Z,9.78
2023-03-27T06:26:35.901Z,9.97
2023-03-27T06:29:07.997Z,10.15
2023-03-27T06:31:39.285Z,10.34
2023-03-27T06:34:30.996Z,10.52
2023-03-27T06:37:16.885Z,10.61
2023-03-27T06:39:46.367Z,10.69
2023-03-27T06:42:16.299Z,10.81
2023-03-27T06:44:54.651Z,11.00
2023-03-27T06:48:13.644Z,11.17
2023-03-27T06:50:47.874Z,11.30
2023-03-27T06:53:27.148Z,11.37
2023-03-27T06:55:58.429Z,11.47
2023-03-27T06:58:31.862Z,11.60
2023-03-27T07:01:01.783Z,11.67
2023-03-27T07:03:37.835Z,11.78
2023-03-27T07:06:37.835Z,11.88
2023-03-27T07:09:11.514Z,11.92
2023-03-27T07:11:47.726Z,11.96
2023-03-27T07:14:17.176Z,12.02
2023-03-27T07:16:46.793Z,12.04
2023-03-27T07:19:19.508Z,12.08
2023-03-27T07:21:53.012Z,12.18
2023-03-27T07:24:22.135Z,12.32
2023-03-27T07:26:51.570Z,12.42
2023-03-27T07:29:25.742Z,12.52
2023-03-27T07:32:00.656Z,12.60
2023-03-27T07:34:42.880Z,12.72
2023-03-27T07:37:43.367Z,12.86
2023-03-27T07:40:39.850Z,13.00
2023-03-27T07:43:34.295Z,13.17
2023-03-27T07:46:04.256Z,13.26
2023-03-27T07:48:33.427Z,13.29
2023-03-27T07:51:13.723Z,13.33
2023-03-27T07:53:44.046Z,13.44
2023-03-27T07:56:22.672Z,13.53
2023-03-27T07:58:53.537Z,13.64
2023-03-27T08:01:23.179Z,13.74
2023-03-27T08:03:55.651Z,13.85
2023-03-27T08:06:25.283Z,13.94
2023-03-27T08:08:54.437Z,14.01
2023-03-27T08:11:30.800Z,14.05
2023-03-27T08:14:00.693Z,14.11
2023-03-27T08:16:30.384Z,14.18
2023-03-27T08:19:02.663Z,14.27
2023-03-27T08:21:33.716Z,14.31
2023-03-27T08:24:05.198Z,14.35
2023-03-27T08:26:37.281Z,14.43
2023-03-27T08:29:10.201Z,14.56
2023-03-27T08:31:41.378Z,14.69
2023-03-27T08:34:10.951Z,14.81
2023-03-27T08:36:45.576Z,14.91
2023-03-27T08:39:15.581Z,14.98
2023-03-27T08:42:00.127Z,14.98
2023-03-27T08:44:40.389Z,15.00
2023-03-27T08:47:19.847Z,15.09
2023-03-27T08:50:45.160Z,15.22
2023-03-27T08:53:29.578Z,15.32
2023-03-27T08:56:01.700Z,15.43
2023-03-27T08:58:38.635Z,15.56
2023-03-27T09:01:29.774Z,15.66
2023-03-27T09:04:20.088Z,15.67
2023-03-27T09:07:06.407Z,15.66
2023-03-27T09:09:59.607Z,15.67
2023-03-27T09:12:59.539Z,15.59
2023-03-27T09:15:42.455Z,15.50
2023-03-27T09:18:17.817Z,15.40
2023-03-27T09:20:53.076Z,15.36
2023-03-27T09:23:26.330Z,15.37
2023-03-27T09:26:21.978Z,15.39
2023-03-27T09:29:23.618Z,15.35
2023-03-27T09:31:59.371Z,15.23
2023-03-27T09:34:30.934Z,15.20
2023-03-27T09:37:00.521Z,15.24
2023-03-27T09:39:34.303Z,15.23
2023-03-27T09:42:19.386Z,15.20
2023-03-27T09:44:50.869Z,15.31
2023-03-27T09:47:23.635Z,15.42
2023-03-27T09:50:15.630Z,15.45
2023-03-27T09:52:55.039Z,15.43
2023-03-27T09:55:37.295Z,15.43
2023-03-27T09:58:28.241Z,15.49
2023-03-27T10:01:09.393Z,15.60
2023-03-27T10:03:51.792Z,15.69
2023-03-27T10:06:32.214Z,15.67
2023-03-27T10:09:23.322Z,15.59
2023-03-27T10:12:01.214Z,15.58
2023-03-27T10:14:52.824Z,15.53
2023-03-27T10:17:38.367Z,15.40
2023-03-27T10:20:19.489Z,15.25
2023-03-27T10:22:56.107Z,15.08
2023-03-27T10:25:39.927Z,14.93
2023-03-27T10:28:23.994Z,14.79
2023-03-27T10:31:34.249Z,14.71
2023-03-27T10:34:32.970Z,14.60
2023-03-27T10:37:30.099Z,14.45
2023-03-27T10:40:21.175Z,14.34
2023-03-27T10:42:56.687Z,14.25
2023-03-27T10:45:27.071Z,14.17
2023-03-27T10:48:01.442Z,14.12
2023-03-27T10:50:46.128Z,14.05
2023-03-27T10:53:25.281Z,14.02
2023-03-27T10:56:19.516Z,14.01
2023-03-27T10:59:09.039Z,14.00
2023-03-27T11:01:42.439Z,13.96
2023-03-27T11:04:21.962Z,13.92
2023-03-27T11:06:57.707Z,13.85
2023-03-27T11:09:31.446Z,13.82
2023-03-27T11:12:14.952Z,13.81
2023-03-27T11:15:01.642Z,13.79
2023-03-27T11:17:47.385Z,13.73
2023-03-27T11:20:37.736Z,13.69
2023-03-27T11:23:26.571Z,13.69
2023-03-27T11:26:16.710Z,13.75
2023-03-27T11:29:09.954Z,13.85
2023-03-27T11:31:54.919Z,14.03
2023-03-27T11:35:02.672Z,14.23
2023-03-27T11:38:17.803Z,14.45
2023-03-27T11:40:51.781Z,14.58
2023-03-27T11:43:21.011Z,14.68
2023-03-27T11:45:57.455Z,14.76
2023-03-27T11:48:54.415Z,14.82
2023-03-27T11:51:37.294Z,14.75
2023-03-27T11:54:28.212Z,14.66
2023-03-27T11:57:06.784Z,14.60
2023-03-27T12:00:12.024Z,14.54
2023-03-27T12:03:37.389Z,14.50
2023-03-27T12:06:17.929Z,14.46
2023-03-27T12:09:04.700Z,14.42
2023-03-27T12:11:43.547Z,14.45
2023-03-27T12:14:23.951Z,14.51
2023-03-27T12:17:04.078Z,14.61
2023-03-27T12:20:27.444Z,14.71
2023-03-27T12:23:40.644Z,14.76
2023-03-27T12:26:35.575Z,14.73
2023-03-27T12:29:47.685Z,14.66
2023-03-27T12:33:10.975Z,14.58
2023-03-27T12:35:42.803Z,14.48
2023-03-27T12:38:35.262Z,14.40
2023-03-27T12:41:19.390Z,14.33
2023-03-27T12:43:59.953Z,14.30
2023-03-27T12:46:39.845Z,14.33
2023-03-27T12:49:12.380Z,14.37
2023-03-27T12:51:52.341Z,14.40
2023-03-27T12:54:39.551Z,14.45
2023-03-27T12:57:44.702Z,14.54
2023-03-27T13:00:21.856Z,14.60
2023-03-27T13:03:31.862Z,14.67
2023-03-27T13:06:45.559Z,14.80
2023-03-27T13:09:19.683Z,14.91
2023-03-27T13:12:32.970Z,14.96
2023-03-27T13:15:42.405Z,14.97
2023-03-27T13:18:21.222Z,14.91
2023-03-27T13:21:22.219Z,14.81
2023-03-27T13:24:19.514Z,14.70
2023-03-27T13:27:15.793Z,14.63
2023-03-27T13:29:49.194Z,14.56
2023-03-27T13:33:08.854Z,14.48
2023-03-27T13:36:12.117Z,14.41
2023-03-27T13:38:53.012Z,14.39
2023-03-27T13:41:48.666Z,14.41
2023-03-27T13:44:44.097Z,14.48
2023-03-27T13:47:15.947Z,14.50
2023-03-27T13:50:14.383Z,14.53
2023-03-27T13:53:06.649Z,14.51
2023-03-27T13:56:32.214Z,14.46
2023-03-27T13:59:39.076Z,14.43
2023-03-27T14:02:51.420Z,14.44
2023-03-27T14:05:45.149Z,14.45
2023-03-27T14:08:22.740Z,14.43
2023-03-27T14:11:30.648Z,14.40
2023-03-27T14:14:47.983Z,14.34
2023-03-27T14:17:25.104Z,14.27
2023-03-27T14:20:16.202Z,14.20
2023-03-27T14:23:08.558Z,14.15
2023-03-27T14:26:06.300Z,14.12
2023-03-27T14:28:59.273Z,14.11
2023-03-27T14:31:35.965Z,14.08
2023-03-27T14:34:26.041Z,14.05
2023-03-27T14:37:39.541Z,14.00
2023-03-27T14:40:33.760Z,13.93
2023-03-27T14:43:06.667Z,13.89
2023-03-27T14:45:39.907Z,13.84
2023-03-27T14:48:29.441Z,13.77
2023-03-27T14:51:02.415Z,13.71
2023-03-27T14:53:37.056Z,13.67
2023-03-27T14:56:31.431Z,13.62
2023-03-27T14:59:29.269Z,13.61
2023-03-27T15:02:04.066Z,13.60
2023-03-27T15:04:33.433Z,13.58
2023-03-27T15:07:19.827Z,13.55
2023-03-27T15:10:15.535Z,13.50
2023-03-27T15:13:03.029Z,13.42
2023-03-27T15:15:40.730Z,13.34
2023-03-27T15:18:15.956Z,13.24
2023-03-27T15:20:45.229Z,13.14
2023-03-27T15:23:42.854Z,13.06
2023-03-27T15:26:12.351Z,12.96
2023-03-27T15:28:46.590Z,12.89
2023-03-27T15:31:16.002Z,12.83
2023-03-27T15:34:02.620Z,12.76
2023-03-27T15:36:34.620Z,12.69
2023-03-27T15:39:04.586Z,12.64
2023-03-27T15:41:33.843Z,12.58
2023-03-27T15:44:09.291Z,12.53
2023-03-27T15:47:10.784Z,12.47
2023-03-27T15:49:42.338Z,12.40
2023-03-27T15:52:33.652Z,12.34
2023-03-27T15:55:04.392Z,12.27
2023-03-27T15:57:34.127Z,12.22
2023-03-27T16:00:10.110Z,12.16
2023-03-27T16:02:48.024Z,12.10
2023-03-27T16:05:17.952Z,12.05
2023-03-27T16:07:48.890Z,11.99
2023-03-27T16:10:31.652Z,11.92
2023-03-27T16:13:06.850Z,11.86
2023-03-27T16:15:43.126Z,11.79
2023-03-27T16:18:19.226Z,11.73
2023-03-27T16:20:49.340Z,11.67
2023-03-27T16:23:19.016Z,11.60
2023-03-27T16:26:09.534Z,11.52
2023-03-27T16:28:38.916Z,11.45
2023-03-27T16:31:16.435Z,11.38
2023-03-27T16:33:47.564Z,11.32
2023-03-27T16:36:17.928Z,11.28
2023-03-27T16:38:48.943Z,11.25
2023-03-27T16:41:18.337Z,11.22
2023-03-27T16:43:49.238Z,11.21
2023-03-27T16:46:36.403Z,11.18
2023-03-27T16:49:05.637Z,11.15
2023-03-27T16:51:36.276Z,11.15
2023-03-27T16:54:05.955Z,11.13
2023-03-27T16:56:35.778Z,11.13
2023-03-27T16:59:05.236Z,11.12
2023-03-27T17:01:34.757Z,11.12
2023-03-27T17:04:04.420Z,11.11
2023-03-27T17:06:34.168Z,11.09
2023-03-27T17:09:03.397Z,11.08
2023-03-27T17:11:35.226Z,11.06
2023-03-27T17:14:04.578Z,11.05
2023-03-27T17:16:34.317Z,11.03
2023-03-27T17:19:04.003Z,11.02
2023-03-27T17:21:33.226Z,11.00
2023-03-27T17:24:04.515Z,11.00
2023-03-27T17:26:35.025Z,10.99
2023-03-27T17:29:06.518Z,10.98
2023-03-27T17:31:35.918Z,10.98
2023-03-27T17:34:05.099Z,10.97
2023-03-27T17:36:44.753Z,10.97
2023-03-27T17:39:16.649Z,10.97
2023-03-27T17:41:46.067Z,10.97
2023-03-27T17:44:15.302Z,10.98
2023-03-27T17:46:44.386Z,10.98
2023-03-27T17:49:13.819Z,10.98
2023-03-27T17:51:43.793Z,10.98
2023-03-27T17:54:13.338Z,10.98
2023-03-27T17:56:43.507Z,10.98
2023-03-27T17:59:13.060Z,10.99
2023-03-27T18:01:43.461Z,11.00
2023-03-27T18:04:12.700Z,11.00
2023-03-27T18:06:42.020Z,11.00
2023-03-27T18:09:11.325Z,10.99
2023-03-27T18:11:40.695Z,10.97
2023-03-27T18:14:09.784Z,10.96
2023-03-27T18:16:39.310Z,10.95
2023-03-27T18:19:09.354Z,10.94
2023-03-27T18:21:38.825Z,10.94
2023-03-27T18:24:08.947Z,10.93
2023-03-27T18:26:38.257Z,10.91
2023-03-27T18:29:08.428Z,10.90
2023-03-27T18:31:39.040Z,10.89
2023-03-27T18:34:08.812Z,10.86
2023-03-27T18:36:37.894Z,10.83
2023-03-27T18:42:30.906Z,10.80
2023-03-27T18:44:59.075Z,10.75
2023-03-27T18:47:27.437Z,10.71
2023-03-27T18:49:58.088Z,10.68
2023-03-27T18:52:26.474Z,10.65
2023-03-27T18:54:54.634Z,10.62
2023-03-27T18:57:22.832Z,10.60
2023-03-27T18:59:50.950Z,10.58
2023-03-27T19:02:24.225Z,10.57
2023-03-27T19:04:53.347Z,10.56
2023-03-27T19:07:21.283Z,10.54
2023-03-27T19:09:49.167Z,10.53
2023-03-27T19:12:17.116Z,10.51
2023-03-27T19:15:13.419Z,10.49
2023-03-27T19:18:28.190Z,10.48
2023-03-27T19:21:16.019Z,10.46
2023-03-27T19:23:48.551Z,10.44
2023-03-27T19:26:19.978Z,10.41
2023-03-27T19:28:47.987Z,10.39
2023-03-27T19:31:17.215Z,10.37
2023-03-27T19:33:45.641Z,10.34
2023-03-27T19:36:13.373Z,10.30
2023-03-27T19:38:41.946Z,10.27
2023-03-27T19:41:12.597Z,10.22
2023-03-27T19:43:41.129Z,10.19
2023-03-27T19:46:16.506Z,10.15
2023-03-27T19:48:47.112Z,10.12
2023-03-27T19:51:22.701Z,10.08
2023-03-27T19:53:52.745Z,10.06
2023-03-27T19:56:23.118Z,10.02
2023-03-27T19:58:52.110Z,9.99
2023-03-27T20:01:21.750Z,9.96
2023-03-27T20:03:50.276Z,9.94
2023-03-27T20:06:19.573Z,9.93
2023-03-27T20:08:47.626Z,9.92
2023-03-27T20:11:16.464Z,9.90
2023-03-27T20:13:55.367Z,9.89
2023-03-27T20:16:26.356Z,9.88
2023-03-27T20:19:02.848Z,9.89
2023-03-27T20:21:34.000Z,9.88
2023-03-27T20:24:01.978Z,9.89
2023-03-27T20:26:38.986Z,9.91
2023-03-27T20:29:16.749Z,9.92
2023-03-27T20:31:46.309Z,9.93
2023-03-27T20:34:14.232Z,9.95
2023-03-27T20:36:43.171Z,9.96
2023-03-27T20:39:22.658Z,9.97
2023-03-27T20:41:50.872Z,9.97
2023-03-27T20:44:18.683Z,9.96
2023-03-27T20:46:51.005Z,9.95
2023-03-27T20:49:40.060Z,9.95
2023-03-27T20:52:13.021Z,9.93
2023-03-27T20:54:41.063Z,9.91
2023-03-27T20:57:10.983Z,9.91
2023-03-27T20:59:39.128Z,9.90
2023-03-27T21:02:07.589Z,9.89
2023-03-27T21:04:35.588Z,9.89
2023-03-27T21:07:04.942Z,9.89
2023-03-27T21:09:33.562Z,9.89
2023-03-27T21:12:01.528Z,9.89
2023-03-27T21:14:30.179Z,9.89
2023-03-27T21:16:57.904Z,9.90
2023-03-27T21:19:25.944Z,9.91
2023-03-27T21:21:53.819Z,9.91
2023-03-27T21:24:21.582Z,9.91
2023-03-27T21:26:49.756Z,9.87
2023-03-27T21:29:17.634Z,9.84
2023-03-27T21:31:46.082Z,9.81
2023-03-27T21:34:13.701Z,9.79
2023-03-27T21:36:41.826Z,9.77
2023-03-27T21:39:10.736Z,9.75
2023-03-27T21:41:38.486Z,9.74
2023-03-27T21:44:06.295Z,9.71
2023-03-27T21:46:34.554Z,9.66
2023-03-27T21:49:02.989Z,9.61
2023-03-27T21:51:30.637Z,9.57
2023-03-27T21:54:03.245Z,9.55
2023-03-27T21:56:31.338Z,9.52
2023-03-27T21:58:59.285Z,9.52
2023-03-27T22:01:27.262Z,9.51
2023-03-27T22:04:01.828Z,9.50
2023-03-27T22:06:30.448Z,9.49
2023-03-27T22:08:58.060Z,9.48
2023-03-27T22:11:26.292Z,9.48
2023-03-27T22:13:54.676Z,9.46
2023-03-27T22:16:23.050Z,9.44
2023-03-27T22:18:51.589Z,9.43
2023-03-27T22:21:27.735Z,9.42
2023-03-27T22:23:56.320Z,9.40
2023-03-27T22:26:30.183Z,9.39
2023-03-27T22:28:58.450Z,9.38
2023-03-27T22:31:26.923Z,9.36
2023-03-27T22:33:55.540Z,9.34
2023-03-27T22:36:24.242Z,9.33
2023-03-27T22:38:51.926Z,9.31
2023-03-27T22:41:20.432Z,9.29
2023-03-27T22:43:49.778Z,9.27
2023-03-27T22:46:19.961Z,9.25
2023-03-27T22:48:54.634Z,9.23
2023-03-27T22:51:22.870Z,9.21
2023-03-27T22:53:53.042Z,9.18
2023-03-27T22:56:20.842Z,9.17
2023-03-27T22:58:48.717Z,9.17
2023-03-27T23:01:16.458Z,9.17
2023-03-27T23:03:44.601Z,9.17
2023-03-27T23:06:19.957Z,9.18
2023-03-27T23:08:49.280Z,9.18
2023-03-27T23:11:17.245Z,9.18
2023-03-27T23:13:48.354Z,9.18
2023-03-27T23:16:18.418Z,9.16
2023-03-27T23:18:46.688Z,9.14
2023-03-27T23:21:17.510Z,9.11
2023-03-27T23:23:45.864Z,9.09
2023-03-27T23:26:14.177Z,9.06
2023-03-27T23:28:42.800Z,9.04
2023-03-27T23:31:12.725Z,9.03
2023-03-27T23:33:43.105Z,9.00
2023-03-27T23:36:14.779Z,8.98
2023-03-27T23:38:44.497Z,8.94
2023-03-27T23:41:12.994Z,8.90
2023-03-27T23:43:40.735Z,8.85
2023-03-27T23:46:11.344Z,8.82
2023-03-27T23:48:41.061Z,8.78
2023-03-27T23:51:11.406Z,8.76
2023-03-27T23:53:41.306Z,8.74
2023-03-27T23:56:09.438Z,8.71
2023-03-27T23:58:37.448Z,8.69
